Time;durP1;ratioP1;P1;durP2;ratioP2;P2;SDS_P1;SDS_P2;PMS_P1;PMS_P2;Temp;Humidity;BMP_temperature;BMP_pressure;BME280_temperature;BME280_humidity;BME280_pressure;Samples;Min_cycle;Max_cycle;Signal;HPM_P1;HPM_P2
2022/01/26 00:00:58;;;;;;;;;;;1.30;99.90;;;;;;5042920;28;19925;-82
2022/01/26 00:06:18;;;;;;;;;;;1.30;99.90;;;;;;5006646;28;20295;-83
2022/01/26 00:08:46;;;;;;;;;;;1.30;99.90;;;;;;5037343;28;19932;-88
2022/01/26 00:11:13;;;;;;;;;;;1.30;99.90;;;;;;5032677;28;19939;-83
2022/01/26 00:13:41;;;;;;;;;;;1.20;99.90;;;;;;5038891;28;19932;-85
2022/01/26 00:16:19;;;;;;;;;;;1.20;99.90;;;;;;5045399;28;20342;-84
2022/01/26 00:18:47;;;;;;;;;;;1.30;99.90;;;;;;5026597;28;20024;-84
2022/01/26 00:21:25;;;;;;;;;;;1.20;99.90;;;;;;5020909;28;19933;-82
2022/01/26 00:24:21;;;;;;;;;;;1.20;99.90;;;;;;5037813;28;19925;-82
2022/01/26 00:29:36;;;;;;;;;;;1.20;99.90;;;;;;5035548;28;19925;-83
2022/01/26 00:40:25;;;;;;;;;;;1.10;99.90;;;;;;5037358;28;19921;-83
2022/01/26 00:42:56;;;;;;;;;;;1.10;99.90;;;;;;5034230;28;20319;-82
2022/01/26 00:45:27;;;;;;;;;;;1.20;99.90;;;;;;5016269;28;19929;-82
2022/01/26 00:47:57;;;;;;;;;;;1.00;99.90;;;;;;5028382;28;19960;-83
2022/01/26 00:50:24;;;;;;;;;;;1.10;99.90;;;;;;5035135;28;19979;-84
2022/01/26 00:52:54;;;;;;;;;;;1.10;99.90;;;;;;5027578;28;19933;-82
2022/01/26 00:55:21;;;;;;;;;;;1.10;99.90;;;;;;5035672;28;19925;-83
2022/01/26 00:57:49;;;;;;;;;;;1.10;99.90;;;;;;5031330;28;20028;-83
2022/01/26 01:00:18;;;;;;;;;;;1.10;99.90;;;;;;5036295;28;20310;-83
2022/01/26 01:02:46;;;;;;;;;;;1.10;99.90;;;;;;5032955;28;19929;-82
2022/01/26 01:05:19;;;;;;;;;;;1.00;99.90;;;;;;5040183;28;19947;-83
2022/01/26 01:07:49;;;;;;;;;;;1.00;99.90;;;;;;5032086;28;19930;-83
2022/01/26 01:10:16;;;;;;;;;;;1.00;99.90;;;;;;5036628;28;20036;-83
2022/01/26 01:12:45;;;;;;;;;;;1.00;99.90;;;;;;5034751;28;19929;-84
2022/01/26 01:15:12;;;;;;;;;;;1.00;99.90;;;;;;5019414;28;19931;-82
2022/01/26 01:17:45;;;;;;;;;;;1.00;99.90;;;;;;5036689;28;19925;-82
2022/01/26 01:20:29;;;;;;;;;;;1.00;99.90;;;;;;5039099;28;19925;-83
2022/01/26 01:23:15;;;;;;;;;;;0.90;99.90;;;;;;5030602;28;19925;-83
2022/01/26 01:26:08;;;;;;;;;;;0.90;99.90;;;;;;5031815;28;20398;-82
2022/01/26 01:28:53;;;;;;;;;;;1.00;99.90;;;;;;5025960;28;19956;-82
2022/01/26 01:31:40;;;;;;;;;;;0.90;99.90;;;;;;5020060;28;20314;-83
2022/01/26 01:34:08;;;;;;;;;;;0.90;99.90;;;;;;5024180;28;19924;-85
2022/01/26 01:36:40;;;;;;;;;;;0.90;99.90;;;;;;5016406;28;20020;-80
2022/01/26 01:39:08;;;;;;;;;;;0.80;99.90;;;;;;5039399;28;20020;-82
2022/01/26 01:41:35;;;;;;;;;;;0.80;99.90;;;;;;5031630;28;19925;-82
2022/01/26 01:44:04;;;;;;;;;;;0.80;99.90;;;;;;5015766;28;19925;-83
2022/01/26 01:46:31;;;;;;;;;;;0.90;99.90;;;;;;5032561;28;20354;-82
2022/01/26 01:48:58;;;;;;;;;;;0.80;99.90;;;;;;5038616;28;19925;-84
2022/01/26 01:51:30;;;;;;;;;;;0.80;99.90;;;;;;5037613;28;20322;-83
2022/01/26 01:53:59;;;;;;;;;;;0.80;99.90;;;;;;5032944;28;19990;-86
2022/01/26 01:56:27;;;;;;;;;;;0.80;99.90;;;;;;5016111;28;20509;-82
2022/01/26 01:58:57;;;;;;;;;;;0.70;99.90;;;;;;5012890;28;20332;-82
2022/01/26 02:01:24;;;;;;;;;;;0.70;99.90;;;;;;5034125;28;20008;-83
2022/01/26 02:03:51;;;;;;;;;;;0.70;99.90;;;;;;5032386;28;19929;-84
2022/01/26 02:06:18;;;;;;;;;;;0.60;99.90;;;;;;5032231;28;19925;-82
2022/01/26 02:08:46;;;;;;;;;;;0.60;99.90;;;;;;5031550;28;19925;-82
2022/01/26 02:11:15;;;;;;;;;;;0.70;99.90;;;;;;5014787;28;19926;-82
2022/01/26 02:13:50;;;;;;;;;;;0.70;99.90;;;;;;5034268;28;19932;-82
2022/01/26 02:16:24;;;;;;;;;;;0.70;99.90;;;;;;5040561;28;19925;-83
2022/01/26 02:19:16;;;;;;;;;;;0.70;99.90;;;;;;5032053;28;19929;-82
2022/01/26 02:49:39;;;;;;;;;;;0.60;99.90;;;;;;5036265;28;19925;-82
2022/01/26 02:52:25;;;;;;;;;;;0.50;99.90;;;;;;5027532;28;19925;-82
2022/01/26 02:55:14;;;;;;;;;;;0.50;99.90;;;;;;5035702;28;19969;-82
2022/01/26 02:57:52;;;;;;;;;;;0.50;99.90;;;;;;5013184;28;19926;-82
2022/01/26 03:00:25;;;;;;;;;;;0.50;99.90;;;;;;5031434;28;20345;-81
2022/01/26 03:02:56;;;;;;;;;;;0.50;99.90;;;;;;5033285;28;19933;-82
2022/01/26 03:05:29;;;;;;;;;;;0.40;99.90;;;;;;5007111;28;19925;-81
2022/01/26 03:08:00;;;;;;;;;;;0.50;99.90;;;;;;5031218;28;19932;-81
2022/01/26 03:10:37;;;;;;;;;;;0.50;99.90;;;;;;5013680;28;19933;-81
2022/01/26 03:13:08;;;;;;;;;;;0.40;99.90;;;;;;5026964;28;19933;-82
2022/01/26 03:15:40;;;;;;;;;;;0.40;99.90;;;;;;5025475;28;19975;-82
2022/01/26 03:18:32;;;;;;;;;;;0.40;99.90;;;;;;5013843;28;19926;-81
2022/01/26 03:21:02;;;;;;;;;;;0.40;99.90;;;;;;5032307;28;20391;-82
2022/01/26 03:29:15;;;;;;;;;;;0.40;99.90;;;;;;5012033;28;21450;-82
2022/01/26 03:34:26;;;;;;;;;;;0.30;99.90;;;;;;5028155;28;20122;-82
2022/01/26 03:36:56;;;;;;;;;;;0.30;99.90;;;;;;5031028;28;19928;-82
2022/01/26 03:39:24;;;;;;;;;;;0.30;99.90;;;;;;5034851;28;19956;-82
2022/01/26 03:41:56;;;;;;;;;;;0.30;99.90;;;;;;5028973;28;19987;-83
2022/01/26 03:44:23;;;;;;;;;;;0.30;99.90;;;;;;5037846;28;19929;-82
2022/01/26 03:46:55;;;;;;;;;;;0.30;99.90;;;;;;5017516;28;19929;-81
2022/01/26 03:49:22;;;;;;;;;;;0.30;99.90;;;;;;5008033;28;20303;-81
2022/01/26 03:51:49;;;;;;;;;;;0.30;99.90;;;;;;5032019;28;19925;-85
2022/01/26 03:54:17;;;;;;;;;;;0.20;99.90;;;;;;5012687;28;19929;-82
2022/01/26 03:56:44;;;;;;;;;;;0.20;99.90;;;;;;5034194;28;20314;-82
2022/01/26 03:59:12;;;;;;;;;;;0.20;99.90;;;;;;5024744;28;19925;-83
2022/01/26 04:01:39;;;;;;;;;;;0.20;99.90;;;;;;5040899;28;19932;-81
2022/01/26 04:04:06;;;;;;;;;;;0.20;99.90;;;;;;5010096;28;20445;-81
2022/01/26 04:06:34;;;;;;;;;;;0.20;99.90;;;;;;5031024;28;20276;-82
2022/01/26 04:09:01;;;;;;;;;;;0.20;99.90;;;;;;5031970;28;19982;-82
2022/01/26 04:11:35;;;;;;;;;;;0.20;99.90;;;;;;5031318;28;19925;-84
2022/01/26 04:14:04;;;;;;;;;;;0.20;99.90;;;;;;5027493;28;19944;-82
2022/01/26 04:16:33;;;;;;;;;;;0.10;99.90;;;;;;5014507;28;19925;-81
2022/01/26 04:19:00;;;;;;;;;;;0.10;99.90;;;;;;5017911;28;19925;-81
2022/01/26 04:21:31;;;;;;;;;;;0.10;99.90;;;;;;5028679;28;19987;-82
2022/01/26 04:24:02;;;;;;;;;;;0.10;99.90;;;;;;5027695;28;19929;-81
2022/01/26 04:26:33;;;;;;;;;;;0.20;99.90;;;;;;5017060;28;19936;-82
2022/01/26 04:29:05;;;;;;;;;;;0.10;99.90;;;;;;5015862;28;20474;-84
2022/01/26 04:31:33;;;;;;;;;;;0.10;99.90;;;;;;5038530;28;19926;-81
2022/01/26 04:34:00;;;;;;;;;;;0.10;99.90;;;;;;5025629;28;19929;-82
2022/01/26 04:36:32;;;;;;;;;;;0.10;99.90;;;;;;5015584;28;19939;-83
2022/01/26 04:39:03;;;;;;;;;;;0.10;99.90;;;;;;5031050;28;19933;-84
2022/01/26 04:41:35;;;;;;;;;;;0.10;99.90;;;;;;5029739;28;19932;-82
2022/01/26 04:44:07;;;;;;;;;;;0.00;99.90;;;;;;5035424;28;20349;-81
2022/01/26 04:46:36;;;;;;;;;;;0.00;99.90;;;;;;5034849;28;19925;-82
2022/01/26 04:49:03;;;;;;;;;;;0.00;99.90;;;;;;5013773;28;19925;-85
2022/01/26 04:51:30;;;;;;;;;;;0.00;99.90;;;;;;5033896;28;20373;-82
2022/01/26 04:53:57;;;;;;;;;;;0.00;99.90;;;;;;5017680;28;20407;-85
2022/01/26 04:56:24;;;;;;;;;;;0.00;99.90;;;;;;5030738;28;20322;-82
2022/01/26 04:58:51;;;;;;;;;;;0.00;99.90;;;;;;5031358;28;20318;-83
2022/01/26 05:01:17;;;;;;;;;;;-0.10;99.90;;;;;;5036186;28;20303;-82
2022/01/26 05:03:46;;;;;;;;;;;0.00;99.90;;;;;;5014172;28;19960;-82
2022/01/26 05:06:13;;;;;;;;;;;0.00;99.90;;;;;;5035496;28;19929;-89
2022/01/26 05:08:40;;;;;;;;;;;-0.10;99.90;;;;;;5044234;28;20426;-88
2022/01/26 05:11:10;;;;;;;;;;;-0.10;99.90;;;;;;5035006;28;19929;-83
2022/01/26 05:13:37;;;;;;;;;;;-0.10;99.90;;;;;;5013593;28;19933;-85
2022/01/26 05:16:06;;;;;;;;;;;-0.10;99.90;;;;;;5027934;28;20357;-83
2022/01/26 05:18:33;;;;;;;;;;;-0.10;99.90;;;;;;5036036;28;20464;-86
2022/01/26 05:21:02;;;;;;;;;;;-0.10;99.90;;;;;;5032786;28;20101;-83
2022/01/26 05:23:29;;;;;;;;;;;-0.10;99.90;;;;;;5017285;28;20395;-83
2022/01/26 05:25:56;;;;;;;;;;;-0.20;99.90;;;;;;5042540;28;19925;-85
2022/01/26 05:28:23;;;;;;;;;;;-0.10;99.90;;;;;;5039407;28;19925;-86
2022/01/26 05:30:50;;;;;;;;;;;-0.10;99.90;;;;;;5011222;28;19933;-83
2022/01/26 05:33:17;;;;;;;;;;;-0.10;99.90;;;;;;5033357;28;19983;-82
2022/01/26 05:35:44;;;;;;;;;;;-0.20;99.90;;;;;;5038055;28;19929;-83
2022/01/26 05:38:15;;;;;;;;;;;-0.20;99.90;;;;;;5034558;28;19964;-88
2022/01/26 05:40:42;;;;;;;;;;;-0.20;99.90;;;;;;5031804;28;19957;-83
2022/01/26 05:43:09;;;;;;;;;;;-0.20;99.90;;;;;;5038940;28;19932;-83
2022/01/26 05:45:38;;;;;;;;;;;-0.30;99.90;;;;;;5036941;28;19925;-83
2022/01/26 05:48:10;;;;;;;;;;;-0.20;99.90;;;;;;5032330;28;19925;-82
2022/01/26 05:50:38;;;;;;;;;;;-0.20;99.90;;;;;;5032163;28;19983;-83
2022/01/26 05:53:06;;;;;;;;;;;-0.30;99.90;;;;;;5038911;28;19931;-83
2022/01/26 05:55:34;;;;;;;;;;;-0.30;99.90;;;;;;5021349;28;19925;-84
2022/01/26 05:58:01;;;;;;;;;;;-0.30;99.90;;;;;;5033693;28;20011;-83
2022/01/26 06:00:28;;;;;;;;;;;-0.30;99.90;;;;;;5028465;28;20390;-87
2022/01/26 06:02:55;;;;;;;;;;;-0.30;99.90;;;;;;5030660;28;19925;-83
2022/01/26 06:05:22;;;;;;;;;;;-0.30;99.90;;;;;;5032665;28;19979;-86
2022/01/26 06:07:49;;;;;;;;;;;-0.20;99.90;;;;;;5034885;28;19933;-82
2022/01/26 06:10:16;;;;;;;;;;;-0.30;99.90;;;;;;5032562;28;20409;-82
2022/01/26 06:12:45;;;;;;;;;;;-0.30;99.90;;;;;;5032846;28;19925;-83
2022/01/26 06:15:13;;;;;;;;;;;-0.30;99.90;;;;;;5015557;28;20035;-82
2022/01/26 06:17:40;;;;;;;;;;;-0.30;99.90;;;;;;5031422;28;19925;-83
2022/01/26 06:20:07;;;;;;;;;;;-0.30;99.90;;;;;;5032200;28;19925;-84
2022/01/26 06:22:34;;;;;;;;;;;-0.30;99.90;;;;;;5034088;28;19932;-84
2022/01/26 06:25:05;;;;;;;;;;;-0.40;99.90;;;;;;5038489;28;19929;-85
2022/01/26 06:27:32;;;;;;;;;;;-0.40;99.90;;;;;;5028981;28;19925;-84
2022/01/26 06:30:01;;;;;;;;;;;-0.40;99.90;;;;;;5029157;28;19929;-85
2022/01/26 06:32:28;;;;;;;;;;;-0.40;99.90;;;;;;5025114;28;19925;-84
2022/01/26 06:34:55;;;;;;;;;;;-0.40;99.90;;;;;;5027268;28;19925;-83
2022/01/26 06:37:22;;;;;;;;;;;-0.40;99.90;;;;;;5025116;28;19929;-83
2022/01/26 06:39:49;;;;;;;;;;;-0.40;99.90;;;;;;5016652;28;20379;-83
2022/01/26 06:42:20;;;;;;;;;;;-0.40;99.90;;;;;;5032459;28;19932;-84
2022/01/26 06:44:54;;;;;;;;;;;-0.40;99.90;;;;;;5029785;28;19933;-85
2022/01/26 06:47:45;;;;;;;;;;;-0.40;99.90;;;;;;5038527;28;19924;-83
2022/01/26 06:50:12;;;;;;;;;;;-0.40;99.90;;;;;;5013471;28;19937;-83
2022/01/26 06:52:43;;;;;;;;;;;-0.50;99.90;;;;;;5029864;28;19947;-82
2022/01/26 06:55:10;;;;;;;;;;;-0.50;99.90;;;;;;5031334;28;19933;-82
2022/01/26 06:57:37;;;;;;;;;;;-0.50;99.90;;;;;;5011633;28;19933;-81
2022/01/26 07:00:04;;;;;;;;;;;-0.50;99.90;;;;;;5030792;28;19925;-81
2022/01/26 07:02:33;;;;;;;;;;;-0.40;99.90;;;;;;5032546;28;20303;-82
2022/01/26 07:05:00;;;;;;;;;;;-0.50;99.90;;;;;;5023234;28;19925;-83
2022/01/26 07:07:27;;;;;;;;;;;-0.50;99.90;;;;;;5029307;28;19925;-88
2022/01/26 07:09:54;;;;;;;;;;;-0.50;99.90;;;;;;5039709;28;19930;-85
2022/01/26 07:12:22;;;;;;;;;;;-0.50;99.90;;;;;;5030486;28;19926;-87
2022/01/26 07:23:03;;;;;;;;;;;-0.50;99.90;;;;;;5010562;28;19972;-83
2022/01/26 07:25:30;;;;;;;;;;;-0.60;99.90;;;;;;5032026;28;19960;-84
2022/01/26 07:28:08;;;;;;;;;;;-0.60;99.90;;;;;;5029598;28;20391;-85
2022/01/26 07:31:10;;;;;;;;;;;;;;;;;;;;;
2022/01/26 07:33:54;;;;;;;;;;;-0.60;99.90;;;;;;5024422;28;19925;-84
2022/01/26 07:36:46;;;;;;;;;;;-0.60;99.90;;;;;;5031954;28;19932;-86
2022/01/26 07:42:43;;;;;;;;;;;-0.60;99.90;;;;;;5000707;28;19972;-82
2022/01/26 07:45:38;;;;;;;;;;;-0.60;99.90;;;;;;5025779;28;19925;-81
2022/01/26 07:48:18;;;;;;;;;;;-0.60;99.90;;;;;;5024772;28;19933;-82
2022/01/26 07:57:00;;;;;;;;;;;-0.60;99.90;;;;;;5021692;28;20407;-82
2022/01/26 07:59:47;;;;;;;;;;;-0.70;99.90;;;;;;5025025;28;19925;-82
2022/01/26 08:02:29;;;;;;;;;;;-0.70;99.90;;;;;;5037666;28;19932;-87
2022/01/26 08:05:21;;;;;;;;;;;;;;;;;;;;;
2022/01/26 08:17:40;;;;;;;;;;;-0.70;99.90;;;;;;4985808;28;20399;-82
2022/01/26 08:23:44;;;;;;;;;;;-0.70;99.90;;;;;;5049443;28;19931;-82
2022/01/26 08:32:13;;;;;;;;;;;-0.70;99.90;;;;;;5027882;28;20019;-81
2022/01/26 08:34:54;;;;;;;;;;;-0.70;99.90;;;;;;5022345;28;21725;-83
2022/01/26 08:37:29;;;;;;;;;;;-0.70;99.90;;;;;;5009923;28;20120;-82
2022/01/26 08:40:11;;;;;;;;;;;-0.70;99.90;;;;;;5008098;28;19925;-86
2022/01/26 08:42:42;;;;;;;;;;;-0.70;99.90;;;;;;5031053;28;19929;-81
2022/01/26 08:45:09;;;;;;;;;;;-0.70;99.90;;;;;;5034935;28;20402;-84
2022/01/26 08:51:05;;;;;;;;;;;-0.70;99.90;;;;;;5023979;28;20314;-86
2022/01/26 09:03:09;;;;;;;;;;;-0.70;99.90;;;;;;5027868;28;19925;-82
2022/01/26 09:05:36;;;;;;;;;;;-0.70;99.90;;;;;;5018284;28;19940;-85
2022/01/26 09:08:04;;;;;;;;;;;-0.70;99.90;;;;;;5009295;28;19926;-86
2022/01/26 09:10:34;;;;;;;;;;;-0.70;99.90;;;;;;5025453;28;19945;-83
2022/01/26 09:13:02;;;;;;;;;;;-0.70;99.90;;;;;;5027080;28;19921;-82
2022/01/26 09:15:30;;;;;;;;;;;-0.70;99.90;;;;;;5025427;28;19933;-83
2022/01/26 09:17:59;;;;;;;;;;;-0.70;99.90;;;;;;5016288;28;19936;-82
2022/01/26 09:20:27;;;;;;;;;;;-0.70;99.90;;;;;;5031281;28;19934;-85
2022/01/26 09:22:55;;;;;;;;;;;-0.70;99.90;;;;;;5026184;28;19932;-82
2022/01/26 09:25:23;;;;;;;;;;;-0.70;99.90;;;;;;5030438;28;19929;-82
2022/01/26 09:27:51;;;;;;;;;;;-0.70;99.90;;;;;;5009989;28;19936;-82
2022/01/26 09:30:19;;;;;;;;;;;-0.70;99.90;;;;;;5023991;28;19939;-81
2022/01/26 09:32:46;;;;;;;;;;;-0.70;99.90;;;;;;5026380;28;20012;-82
2022/01/26 09:38:41;;;;;;;;;;;-0.70;99.90;;;;;;5039967;28;19953;-86
2022/01/26 09:44:23;;;;;;;;;;;-0.70;99.90;;;;;;5026370;28;19940;-84
2022/01/26 09:50:26;;;;;;;;;;;-0.60;99.90;;;;;;5006440;28;19929;-83
2022/01/26 09:55:56;;;;;;;;;;;-0.70;99.90;;;;;;5038260;28;20016;-84
2022/01/26 09:58:52;;;;;;;;;;;-0.60;99.90;;;;;;5023647;28;20444;-81
2022/01/26 10:01:41;;;;;;;;;;;-0.60;99.90;;;;;;5018322;28;19933;-86
2022/01/26 10:04:40;;;;;;;;;;;-0.60;99.90;;;;;;5032887;28;19961;-88
2022/01/26 10:07:54;;;;;;;;;;;-0.60;99.90;;;;;;5030482;28;20031;-83
2022/01/26 10:19:11;;;;;;;;;;;-0.60;99.90;;;;;;5032868;28;19933;-81
2022/01/26 10:21:45;;;;;;;;;;;-0.30;99.90;;;;;;5024693;28;19948;-81
2022/01/26 10:24:13;;;;;;;;;;;-0.40;99.90;;;;;;5035080;28;19933;-82
2022/01/26 10:26:40;;;;;;;;;;;-0.50;99.90;;;;;;5020719;28;19941;-80
2022/01/26 10:29:08;;;;;;;;;;;-0.40;99.90;;;;;;5024038;28;19932;-79
2022/01/26 10:31:36;;;;;;;;;;;-0.50;99.90;;;;;;5014719;28;20300;-79
2022/01/26 10:34:06;;;;;;;;;;;-0.40;99.90;;;;;;5019414;28;19925;-79
2022/01/26 10:36:38;;;;;;;;;;;-0.40;99.90;;;;;;5023444;28;20024;-79
2022/01/26 10:39:07;;;;;;;;;;;-0.50;99.90;;;;;;5025487;28;19925;-79
2022/01/26 10:41:34;;;;;;;;;;;-0.40;99.90;;;;;;5022021;28;19932;-79
2022/01/26 10:44:02;;;;;;;;;;;-0.40;99.90;;;;;;5017505;28;19932;-83
2022/01/26 10:46:32;;;;;;;;;;;-0.30;99.90;;;;;;5029612;28;19975;-80
2022/01/26 10:49:16;;;;;;;;;;;-0.10;99.90;;;;;;5014919;28;19933;-83
2022/01/26 10:52:02;;;;;;;;;;;-0.30;99.90;;;;;;5032264;28;20384;-87
2022/01/26 10:54:37;;;;;;;;;;;-0.20;99.90;;;;;;5029972;28;19925;-85
2022/01/26 10:57:05;;;;;;;;;;;-0.20;99.90;;;;;;5004107;28;19959;-82
2022/01/26 10:59:33;;;;;;;;;;;0.00;99.90;;;;;;5025711;28;19940;-82
2022/01/26 11:02:01;;;;;;;;;;;0.00;99.90;;;;;;5009078;28;20451;-80
2022/01/26 11:04:28;;;;;;;;;;;0.10;99.90;;;;;;5023317;28;19969;-80
2022/01/26 11:06:57;;;;;;;;;;;0.10;99.90;;;;;;5021610;28;20422;-79
2022/01/26 11:09:25;;;;;;;;;;;0.10;99.90;;;;;;5026454;28;20036;-79
2022/01/26 11:12:00;;;;;;;;;;;0.30;99.90;;;;;;5029182;28;19931;-80
2022/01/26 11:14:27;;;;;;;;;;;0.30;99.90;;;;;;5025108;28;19925;-82
2022/01/26 11:17:00;;;;;;;;;;;0.30;99.90;;;;;;5031740;28;20002;-82
2022/01/26 11:19:28;;;;;;;;;;;0.40;99.90;;;;;;5027429;28;19972;-84
2022/01/26 11:21:55;;;;;;;;;;;0.40;99.90;;;;;;5028942;28;19940;-83
2022/01/26 11:24:24;;;;;;;;;;;0.60;99.90;;;;;;5029257;28;19997;-84
2022/01/26 11:27:03;;;;;;;;;;;0.70;99.90;;;;;;5014355;28;19955;-84
2022/01/26 11:29:33;;;;;;;;;;;0.70;99.90;;;;;;5024139;28;20295;-81
2022/01/26 11:32:01;;;;;;;;;;;0.70;99.90;;;;;;5024214;28;19929;-82
2022/01/26 11:34:30;;;;;;;;;;;0.80;99.90;;;;;;5008614;28;20008;-79
2022/01/26 11:36:58;;;;;;;;;;;0.80;99.90;;;;;;5032639;28;20012;-79
2022/01/26 11:42:19;;;;;;;;;;;1.00;99.90;;;;;;5028147;28;19925;-81
2022/01/26 11:45:07;;;;;;;;;;;1.00;99.90;;;;;;5032973;28;20410;-82
2022/01/26 11:47:35;;;;;;;;;;;1.10;99.90;;;;;;5026522;28;19921;-80
2022/01/26 11:50:05;;;;;;;;;;;1.30;99.90;;;;;;5029276;28;20370;-82
2022/01/26 11:52:35;;;;;;;;;;;1.30;99.90;;;;;;5033065;28;20029;-82
2022/01/26 11:55:09;;;;;;;;;;;1.40;99.90;;;;;;5038201;28;19964;-83
2022/01/26 11:57:43;;;;;;;;;;;1.40;99.90;;;;;;5024040;28;19940;-85
2022/01/26 12:00:14;;;;;;;;;;;1.50;99.90;;;;;;5052589;28;19936;-81
2022/01/26 12:02:53;;;;;;;;;;;1.60;99.90;;;;;;5036246;28;19925;-82
2022/01/26 12:05:24;;;;;;;;;;;1.60;99.90;;;;;;5038194;28;19913;-96
2022/01/26 12:07:53;;;;;;;;;;;1.70;99.90;;;;;;5052372;28;19944;-85
2022/01/26 12:10:28;;;;;;;;;;;1.80;99.90;;;;;;5031115;28;19929;-83
2022/01/26 12:13:01;;;;;;;;;;;1.80;99.90;;;;;;5050469;28;19913;-91
2022/01/26 12:15:31;;;;;;;;;;;1.90;99.90;;;;;;5030758;28;19960;-83
2022/01/26 12:18:14;;;;;;;;;;;2.00;99.90;;;;;;5021054;28;19956;-85
2022/01/26 12:32:13;;;;;;;;;;;2.50;99.90;;;;;;5030738;28;19933;-81
2022/01/26 12:34:46;;;;;;;;;;;2.50;99.90;;;;;;5024754;28;19930;-80
2022/01/26 12:37:23;;;;;;;;;;;2.60;99.90;;;;;;5022055;28;19932;-80
2022/01/26 12:43:00;;;;;;;;;;;2.80;99.90;;;;;;4949953;28;20339;-79
2022/01/26 12:45:28;;;;;;;;;;;2.90;99.90;;;;;;5025357;28;19929;-80
2022/01/26 12:47:57;;;;;;;;;;;2.90;99.90;;;;;;5031280;28;19989;-80
2022/01/26 12:50:25;;;;;;;;;;;3.00;99.90;;;;;;5017879;28;19948;-81
2022/01/26 13:01:12;;;;;;;;;;;3.20;99.90;;;;;;4977843;28;19997;-80
2022/01/26 13:06:07;;;;;;;;;;;3.20;99.90;;;;;;5031849;28;19992;-81
2022/01/26 13:08:44;;;;;;;;;;;3.20;99.90;;;;;;5039868;28;19926;-81
2022/01/26 13:18:10;;;;;;;;;;;3.60;99.90;;;;;;4980110;28;19954;-81
2022/01/26 13:20:52;;;;;;;;;;;3.60;99.90;;;;;;5206083;22;19929;-81
2022/01/26 13:23:33;;;;;;;;;;;3.60;99.90;;;;;;5010850;28;19973;-80
2022/01/26 13:26:15;;;;;;;;;;;3.80;99.90;;;;;;5021555;28;19936;-80
2022/01/26 13:52:02;;;;;;;;;;;3.60;99.90;;;;;;5055052;28;19918;-82
2022/01/26 13:54:52;;;;;;;;;;;3.70;99.90;;;;;;5049333;28;19972;-81
2022/01/26 13:57:42;;;;;;;;;;;3.70;99.90;;;;;;5017110;28;19934;-82
2022/01/26 14:00:11;;;;;;;;;;;3.70;99.90;;;;;;5017240;28;20016;-82
2022/01/26 14:02:38;;;;;;;;;;;3.70;99.90;;;;;;5019019;28;19972;-82
2022/01/26 14:05:08;;;;;;;;;;;3.80;99.90;;;;;;5168806;23;19914;-80
2022/01/26 14:29:55;;;;;;;;;;;4.10;99.90;;;;;;4948347;29;19927;-81
2022/01/26 14:35:20;;;;;;;;;;;4.10;99.90;;;;;;4926391;29;20329;-81
2022/01/26 15:20:23;;;;;;;;;;;3.60;99.90;;;;;;4944528;29;20001;-81
2022/01/26 15:44:51;;;;;;;;;;;3.00;99.90;;;;;;5118172;27;19976;-80
2022/01/26 15:50:21;;;;;;;;;;;3.40;99.90;;;;;;5131266;27;19904;-82
2022/01/26 15:52:56;;;;;;;;;;;3.40;99.90;;;;;;5108921;28;19928;-82
2022/01/26 15:58:26;;;;;;;;;;;3.30;99.90;;;;;;5112443;28;19924;-80
2022/01/26 16:06:37;;;;;;;;;;;3.30;99.90;;;;;;5111303;28;19924;-82
2022/01/26 16:17:59;;;;;;;;;;;3.10;99.90;;;;;;5121040;28;21073;-80
2022/01/26 16:20:43;;;;;;;;;;;3.00;99.90;;;;;;5118394;28;19996;-81
2022/01/26 17:43:15;;;;;;;;;;;2.10;99.90;;;;;;5091279;28;19989;-81
2022/01/26 18:16:47;;;;;;;;;;;1.80;99.90;;;;;;5011589;28;19926;-80
2022/01/26 18:33:07;;;;;;;;;;;1.70;99.90;;;;;;4983966;28;19926;-82
2022/01/26 18:49:35;;;;;;;;;;;1.60;99.90;;;;;;5051709;28;19926;-79
2022/01/26 18:52:02;;;;;;;;;;;1.60;99.90;;;;;;5048523;28;19951;-79
2022/01/26 18:54:30;;;;;;;;;;;1.60;99.90;;;;;;5063297;28;20414;-80
2022/01/26 18:56:59;;;;;;;;;;;1.60;99.90;;;;;;4986838;28;19933;-80
2022/01/26 18:59:26;;;;;;;;;;;1.50;99.90;;;;;;5046772;28;19936;-80
2022/01/26 19:01:56;;;;;;;;;;;1.60;99.90;;;;;;5061630;28;19948;-80
2022/01/26 19:04:27;;;;;;;;;;;1.60;99.90;;;;;;5055242;28;20007;-80
2022/01/26 19:06:54;;;;;;;;;;;1.50;99.90;;;;;;4994882;28;19926;-80
2022/01/26 19:09:25;;;;;;;;;;;1.50;99.90;;;;;;5053878;28;19940;-82
2022/01/26 19:11:52;;;;;;;;;;;1.50;99.90;;;;;;5005256;28;19955;-80
2022/01/26 19:14:21;;;;;;;;;;;1.50;99.90;;;;;;5000052;28;19926;-81
2022/01/26 19:16:53;;;;;;;;;;;1.50;99.90;;;;;;5077366;28;19948;-80
2022/01/26 19:19:30;;;;;;;;;;;1.50;99.90;;;;;;4988563;28;19933;-79
2022/01/26 19:22:25;;;;;;;;;;;1.50;99.90;;;;;;4983792;28;20596;-80
2022/01/26 19:24:58;;;;;;;;;;;1.50;99.90;;;;;;4985720;28;19934;-80
2022/01/26 19:27:30;;;;;;;;;;;1.40;99.90;;;;;;5058362;28;19937;-79
2022/01/26 19:30:17;;;;;;;;;;;1.40;99.90;;;;;;4992359;28;19937;-80
2022/01/26 19:32:55;;;;;;;;;;;1.40;99.90;;;;;;4982623;28;19957;-80
2022/01/26 19:46:29;;;;;;;;;;;1.30;99.90;;;;;;5002511;28;19926;-81
2022/01/26 19:51:53;;;;;;;;;;;1.30;99.90;;;;;;4983455;28;19930;-81
2022/01/26 19:54:21;;;;;;;;;;;1.30;99.90;;;;;;5000185;28;19926;-81
2022/01/26 19:56:48;;;;;;;;;;;1.30;99.90;;;;;;5005222;28;19936;-81
2022/01/26 19:59:15;;;;;;;;;;;1.30;99.90;;;;;;4995509;28;19951;-80
2022/01/26 20:01:42;;;;;;;;;;;1.30;99.90;;;;;;5060363;28;19932;-80
2022/01/26 20:04:09;;;;;;;;;;;1.30;99.90;;;;;;5044033;28;20075;-80
2022/01/26 20:06:37;;;;;;;;;;;1.30;99.90;;;;;;4984295;28;20026;-80
2022/01/26 20:09:12;;;;;;;;;;;1.20;99.90;;;;;;5053441;28;20341;-83
2022/01/26 20:11:43;;;;;;;;;;;1.20;99.90;;;;;;4987342;28;19941;-81
2022/01/26 20:14:10;;;;;;;;;;;1.20;99.90;;;;;;5004138;28;19949;-80
2022/01/26 20:16:38;;;;;;;;;;;1.20;99.90;;;;;;4984284;28;20430;-80
2022/01/26 20:19:05;;;;;;;;;;;1.20;99.90;;;;;;4978808;28;19941;-82
2022/01/26 20:21:32;;;;;;;;;;;1.20;99.90;;;;;;4983706;28;19925;-82
2022/01/26 20:23:59;;;;;;;;;;;1.20;99.90;;;;;;4984026;28;19936;-82
2022/01/26 20:26:28;;;;;;;;;;;1.20;99.90;;;;;;4983420;28;20417;-82
2022/01/26 20:28:54;;;;;;;;;;;1.10;99.90;;;;;;4987695;28;19966;-82
2022/01/26 20:31:24;;;;;;;;;;;1.10;99.90;;;;;;5056413;28;20049;-82
2022/01/26 20:33:51;;;;;;;;;;;1.10;99.90;;;;;;4994150;28;19926;-82
2022/01/26 20:36:18;;;;;;;;;;;1.10;99.90;;;;;;5010637;28;20299;-82
2022/01/26 20:38:45;;;;;;;;;;;1.10;99.90;;;;;;4992453;28;20391;-82
2022/01/26 20:41:12;;;;;;;;;;;1.10;99.90;;;;;;4993020;28;20308;-82
2022/01/26 20:43:41;;;;;;;;;;;1.10;99.90;;;;;;5002816;28;19926;-82
2022/01/26 20:46:09;;;;;;;;;;;1.10;99.90;;;;;;5046856;28;19988;-81
